Impacts TAF Board INFO
FOR SITUATIONAL AWARENESS. NOT TO BE USED FOR FLIGHT PLANNING PURPOSES.
IDs:

KSFO - San Francisco Intl, CA, US

Issued at 2339 UTC 24 Feb 2018
Updated at 2355 UTC 24 Feb 2018
Potential Impact None Slight Moderate High
Time2256Z 25/00Z 25/01Z 25/02Z 25/03Z 25/04Z 25/05Z 25/06Z 25/07Z 25/08Z 25/09Z 25/10Z 25/11Z 25/12Z>>
Type OBS PRVL PRVL PRVL PRVL PRVL PRVL PRVL PRVL PRVL PRVL PRVL PRVL PRVL
VIS 10 >6 >6 >6 >6 >6 >6 >6 >6 >6 >6 >6 >6 >6
CIG 33 200 200 200 200 -- -- -- -- -- -- -- -- --
Cover BKN BKN BKN BKN BKN SCT SCT SCT SCT SCT SCT FEW FEW FEW
FltCat VFR VFR VFR VFR VFR VFR VFR VFR VFR VFR VFR VFR VFR VFR
WX -- -- -- -- -- -- -- -- -- -- -- -- -- --
WDir 270 270 270 270 270 280 280 280 280 280 280 290 290 290
WSpd 16 19 19 19 19 13 13 13 13 13 13 8 8 8
WGst 23 28 28 28 28 -- -- -- -- -- -- -- -- --

Raw TAF
KSFO 242339Z 2500/2606 27019G28KT P6SM FEW024 SCT035 BKN200
  FM250400 28013KT P6SM FEW030 SCT100
  FM251000 29008KT P6SM FEW020
  FM252200 26015KT P6SM FEW025
  FM260200 26018KT P6SM SCT030 BKN050


Raw METAR
KSFO 242256Z 27016G23KT 10SM SCT020 BKN033 BKN200 12/06 A3035 RMK AO2 SLP278 T01170056 $
KSFO 242156Z 27019KT 10SM FEW024 SCT035 BKN200 13/06 A3037 RMK AO2 PK WND 27026/2100 SLP284 T01280056 $
KSFO 242056Z 03005KT 10SM FEW030 BKN200 13/04 A3038 RMK AO2 SLP287 T01330044 58016 $

METAR Board
Radar Display
Forecast Discussion

FOR SITUATIONAL AWARENESS. NOT TO BE USED FOR FLIGHT PLANNING PURPOSES.